Airfield :
LOGIN :

Register | Disclaimer

   EN    FR    IT 

 










Legend :    VFR   Marginal VFR   IFR   Intensive IFR   Very Intensive IFR
Visi :
Ceiling :
>= 8 km
>= 3000ft
5 to 8 km
1000 to 3000 ft
1500m to 5 km
500 to 1000 ft
800 to 1500m
200 to 500 ft
< 800m
< 200 ft
Symbols :   Thunderstorms  Fog  Heavy snow  Heavy precipitations  Wind > 20 kt
SIGMETs :     Misc.  Thunderstorms  Icing  Turbulence  Mountain Waves  Volcanic Ashes






- Airport Elevation : 306 ft
- IATA code : EMA


EGNX - Nottingham East Midlands

CURRENT METAR :
  • 201520Z 05008KT 020V080 9999 SCT030 17/09 Q1014

EXPIRED METARs :
  • 201450Z 04008KT 350V070 9999 SCT029 17/09 Q1014
  • 201420Z 04008KT 340V100 9999 SCT028 17/09 Q1015
  • 201350Z 03008KT 340V090 9999 SCT026 17/10 Q1015
  • 201320Z 05007KT 320V100 9999 SCT025 17/10 Q1015
  • 201250Z 03008KT 340V070 9999 SCT023 SCT028 16/10 Q1015
  • 201220Z 02007KT 340V070 9999 BKN023 16/10 Q1016
  • 201150Z 02008KT 330V060 9999 BKN021 15/10 Q1016
  • 201120Z 03010KT 9999 BKN022 15/09 Q1016
  • 201050Z 03009KT 340V070 9999 BKN023 15/09 Q1016

TAF TAF EGNX
Valid from the 20 at 12:00 until the 21 at 12:00 UTC


201054Z 2012/2112 05009KT 9999 FEW030
TEMPO 2104/2108 6000 SHRA
PROB30
TEMPO 2104/2108 BKN009
PROB30
TEMPO 2108/2112 7000 SHRA BKN014
ATIS : +44 1332 852 852 (ext 3201)



MET'MAP, your aeronautical weather chart ! - Copyright ORBIFLY December 2007 - Disclaimer

ORBIFLY MET'MAP TEAM :

Programming & Development : Alexandra Zaïnal
Original concept : Baudouin d'Aumeries
Technical & hardware support : Manuel Goepfert
Assistance : Marc-Olivier Méhu




SOURCES & CREDITS :

   NOAA